2°C Temp
-2°C Dewpoint
75% Humidity
Temperature
5 KM/H
3 MPH
3 KTS
20°
North North
East

Wind Speed
Clear
Conditions
Pressure 1011.92 (hPa) - 29.88 (in)
Visibility 6.2 (mi) - 10.0 (km)

Current Conditions
LIMC
Location Malpensa 50(km)
Metar :LIMC 072020Z 02003KT 010V070 CAVOK 02/M02 Q1012 NOSIG
Tue 7th December 21:20 pm

Airport
  Metar Aviation API Data Provided by https://www.checkwx.com/ PHP scripts by weather34.com ©2021